N27JY PTPN-PTKK
Flight info
| Callsign | N27JY |
|---|---|
| Flight time | 1h 2m |
| Altitude | 38000 |
| Route | BIRUQ R584 MICNO |
| Aircraft | CL60/M-SBDE1E2E3FGHIJ1J4J5J7M3RWXYZ/LB1V1D1 |
Departure
| Time | 2026-04-24 22:41 |
|---|---|
| Airport | Pohnpei International Airport (PTPN) |
Arrival
| Time | 2026-04-24 23:44 |
|---|---|
| Airport | Chuuk International Airport (PTKK) |
| Time | Latitude | Longitude | Altitude | Speed | Heading |
|---|---|---|---|---|---|
| 2026-04-24 22:21 | 6.98175 | 158.20366 | 27 ft | 0 kts | 267° |
| 2026-04-24 22:39 | 6.98175 | 158.20360 | 27 ft | 2 kts | 267° |
| 2026-04-24 22:39 | 6.98203 | 158.20343 | 26 ft | 11 kts | 12° |
| 2026-04-24 22:39 | 6.98308 | 158.20360 | 26 ft | 17 kts | 1° |
| 2026-04-24 22:39 | 6.98436 | 158.20360 | 26 ft | 19 kts | 359° |
| 2026-04-24 22:40 | 6.98511 | 158.20314 | 26 ft | 13 kts | 284° |
| 2026-04-24 22:40 | 6.98514 | 158.20203 | 24 ft | 14 kts | 261° |
| 2026-04-24 22:40 | 6.98474 | 158.20113 | 21 ft | 9 kts | 267° |
| 2026-04-24 22:40 | 6.98516 | 158.20114 | 22 ft | 10 kts | 96° |
| 2026-04-24 22:41 | 6.98513 | 158.20372 | 26 ft | 88 kts | 90° |
| 2026-04-24 22:41 | 6.98501 | 158.21291 | 145 ft | 164 kts | 91° |
| 2026-04-24 22:41 | 6.98484 | 158.22449 | 1175 ft | 172 kts | 89° |
| 2026-04-24 22:41 | 6.98494 | 158.23666 | 2216 ft | 187 kts | 90° |
| 2026-04-24 22:42 | 6.98496 | 158.25008 | 3345 ft | 203 kts | 89° |
| 2026-04-24 22:42 | 6.98524 | 158.26369 | 4786 ft | 203 kts | 90° |
| 2026-04-24 22:42 | 6.98780 | 158.27745 | 6000 ft | 213 kts | 61° |
| 2026-04-24 22:42 | 6.99887 | 158.28667 | 7339 ft | 224 kts | 23° |
| 2026-04-24 22:43 | 7.01474 | 158.28784 | 8420 ft | 243 kts | 358° |
| 2026-04-24 22:43 | 7.03119 | 158.28245 | 9524 ft | 259 kts | 335° |
| 2026-04-24 22:43 | 7.04460 | 158.27017 | 10756 ft | 268 kts | 305° |
| 2026-04-24 22:43 | 7.05088 | 158.25279 | 11846 ft | 276 kts | 273° |
| 2026-04-24 22:44 | 7.05046 | 158.23262 | 12506 ft | 303 kts | 267° |
| 2026-04-24 22:44 | 7.04920 | 158.21062 | 13075 ft | 328 kts | 267° |
| 2026-04-24 22:44 | 7.04799 | 158.18739 | 13951 ft | 339 kts | 266° |
| 2026-04-24 22:44 | 7.04675 | 158.16400 | 15080 ft | 338 kts | 268° |
| 2026-04-24 22:45 | 7.04552 | 158.14044 | 16110 ft | 339 kts | 268° |
| 2026-04-24 22:45 | 7.04429 | 158.11682 | 17043 ft | 340 kts | 268° |
| 2026-04-24 22:45 | 7.04307 | 158.09309 | 17952 ft | 342 kts | 269° |
| 2026-04-24 22:45 | 7.04186 | 158.06941 | 18803 ft | 344 kts | 269° |
| 2026-04-24 22:46 | 7.04062 | 158.04533 | 19604 ft | 347 kts | 269° |
| 2026-04-24 22:46 | 7.03939 | 158.02104 | 20363 ft | 351 kts | 269° |
| 2026-04-24 22:46 | 7.03813 | 157.99632 | 21085 ft | 355 kts | 269° |
| 2026-04-24 22:46 | 7.03687 | 157.97145 | 21768 ft | 359 kts | 269° |
| 2026-04-24 22:47 | 7.03559 | 157.94624 | 22484 ft | 362 kts | 269° |
| 2026-04-24 22:47 | 7.03431 | 157.92104 | 23175 ft | 365 kts | 268° |
| 2026-04-24 22:47 | 7.03301 | 157.89542 | 23876 ft | 368 kts | 269° |
| 2026-04-24 22:47 | 7.03170 | 157.86961 | 24556 ft | 371 kts | 268° |
| 2026-04-24 22:48 | 7.03039 | 157.84364 | 25205 ft | 374 kts | 268° |
| 2026-04-24 22:48 | 7.02904 | 157.81718 | 25832 ft | 377 kts | 268° |
| 2026-04-24 22:48 | 7.02770 | 157.79065 | 26430 ft | 380 kts | 268° |
| 2026-04-24 22:48 | 7.02635 | 157.76399 | 26998 ft | 384 kts | 267° |
| 2026-04-24 22:49 | 7.02497 | 157.73691 | 27585 ft | 386 kts | 267° |
| 2026-04-24 22:49 | 7.02359 | 157.70956 | 28113 ft | 390 kts | 267° |
| 2026-04-24 22:49 | 7.02422 | 157.68218 | 28619 ft | 394 kts | 274° |
| 2026-04-24 22:49 | 7.02655 | 157.65439 | 29118 ft | 398 kts | 274° |
| 2026-04-24 22:50 | 7.02884 | 157.62660 | 29612 ft | 402 kts | 274° |
| 2026-04-24 22:50 | 7.03118 | 157.59808 | 30096 ft | 406 kts | 274° |
| 2026-04-24 22:50 | 7.03348 | 157.56988 | 30570 ft | 409 kts | 274° |
| 2026-04-24 22:50 | 7.03581 | 157.54126 | 31027 ft | 413 kts | 274° |
| 2026-04-24 22:51 | 7.03819 | 157.51204 | 31461 ft | 416 kts | 274° |
| 2026-04-24 22:51 | 7.04053 | 157.48308 | 31869 ft | 419 kts | 274° |
| 2026-04-24 22:51 | 7.04292 | 157.45352 | 32272 ft | 422 kts | 274° |
| 2026-04-24 22:51 | 7.04532 | 157.42389 | 32689 ft | 425 kts | 274° |
| 2026-04-24 22:52 | 7.04770 | 157.39429 | 33118 ft | 427 kts | 274° |
| 2026-04-24 22:52 | 7.05011 | 157.36436 | 33559 ft | 428 kts | 273° |
| 2026-04-24 22:52 | 7.05253 | 157.33429 | 34030 ft | 429 kts | 273° |
| 2026-04-24 22:52 | 7.05491 | 157.30476 | 34590 ft | 426 kts | 273° |
| 2026-04-24 22:53 | 7.05729 | 157.27504 | 35203 ft | 422 kts | 273° |
| 2026-04-24 22:53 | 7.05964 | 157.24574 | 35779 ft | 419 kts | 273° |
| 2026-04-24 22:53 | 7.06198 | 157.21655 | 36288 ft | 416 kts | 273° |
| 2026-04-24 22:53 | 7.06432 | 157.18723 | 36742 ft | 415 kts | 273° |
| 2026-04-24 22:54 | 7.06663 | 157.15832 | 37127 ft | 414 kts | 273° |
| 2026-04-24 22:54 | 7.06895 | 157.12933 | 37477 ft | 414 kts | 273° |
| 2026-04-24 22:54 | 7.07125 | 157.10048 | 37789 ft | 414 kts | 272° |
| 2026-04-24 22:54 | 7.07356 | 157.07136 | 37881 ft | 419 kts | 273° |
| 2026-04-24 22:55 | 7.07828 | 157.01178 | 37890 ft | 432 kts | 273° |
| 2026-04-24 22:55 | 7.08311 | 156.95088 | 37882 ft | 444 kts | 273° |
| 2026-04-24 22:56 | 7.08811 | 156.88768 | 37884 ft | 454 kts | 273° |
| 2026-04-24 22:56 | 7.09316 | 156.82388 | 37884 ft | 461 kts | 273° |
| 2026-04-24 22:57 | 7.09826 | 156.75919 | 37888 ft | 468 kts | 273° |
| 2026-04-24 22:57 | 7.10346 | 156.69321 | 37884 ft | 473 kts | 273° |
| 2026-04-24 22:58 | 7.10866 | 156.62714 | 37887 ft | 474 kts | 273° |
| 2026-04-24 22:58 | 7.11385 | 156.56108 | 37883 ft | 474 kts | 273° |
| 2026-04-24 22:59 | 7.11904 | 156.49495 | 37887 ft | 474 kts | 273° |
| 2026-04-24 23:00 | 7.12682 | 156.39563 | 37886 ft | 474 kts | 273° |
| 2026-04-24 23:00 | 7.13202 | 156.32903 | 37890 ft | 474 kts | 272° |
| 2026-04-24 23:01 | 7.13720 | 156.26248 | 37885 ft | 474 kts | 272° |
| 2026-04-24 23:01 | 7.14233 | 156.19652 | 37887 ft | 474 kts | 272° |
| 2026-04-24 23:02 | 7.14747 | 156.13032 | 37886 ft | 474 kts | 272° |
| 2026-04-24 23:02 | 7.15260 | 156.06403 | 37884 ft | 474 kts | 272° |
| 2026-04-24 23:03 | 7.15772 | 155.99783 | 37886 ft | 474 kts | 272° |
| 2026-04-24 23:03 | 7.16283 | 155.93162 | 37886 ft | 474 kts | 272° |
| 2026-04-24 23:04 | 7.16791 | 155.86571 | 37886 ft | 474 kts | 273° |
| 2026-04-24 23:04 | 7.17300 | 155.79947 | 37886 ft | 475 kts | 272° |
| 2026-04-24 23:05 | 7.17809 | 155.73305 | 37884 ft | 475 kts | 272° |
| 2026-04-24 23:05 | 7.18316 | 155.66692 | 37882 ft | 475 kts | 273° |
| 2026-04-24 23:06 | 7.18825 | 155.60022 | 37885 ft | 474 kts | 272° |
| 2026-04-24 23:06 | 7.19329 | 155.53420 | 37891 ft | 474 kts | 272° |
| 2026-04-24 23:07 | 7.19834 | 155.46785 | 37890 ft | 474 kts | 273° |
| 2026-04-24 23:07 | 7.20335 | 155.40195 | 37888 ft | 475 kts | 273° |
| 2026-04-24 23:08 | 7.20839 | 155.33546 | 37889 ft | 475 kts | 273° |
| 2026-04-24 23:08 | 7.21343 | 155.26886 | 37890 ft | 475 kts | 273° |
| 2026-04-24 23:09 | 7.21841 | 155.20296 | 37889 ft | 475 kts | 273° |
| 2026-04-24 23:09 | 7.22344 | 155.13625 | 37887 ft | 474 kts | 273° |
| 2026-04-24 23:10 | 7.22839 | 155.07036 | 37886 ft | 474 kts | 273° |
| 2026-04-24 23:10 | 7.23338 | 155.00394 | 37886 ft | 475 kts | 273° |
| 2026-04-24 23:11 | 7.23834 | 154.93776 | 37884 ft | 475 kts | 273° |
| 2026-04-24 23:11 | 7.24331 | 154.87123 | 37884 ft | 475 kts | 273° |
| 2026-04-24 23:12 | 7.24825 | 154.80510 | 37886 ft | 474 kts | 273° |
| 2026-04-24 23:12 | 7.25316 | 154.73912 | 37886 ft | 473 kts | 273° |
| 2026-04-24 23:13 | 7.25807 | 154.67310 | 37885 ft | 471 kts | 273° |
| 2026-04-24 23:13 | 7.26297 | 154.60704 | 37885 ft | 471 kts | 273° |
| 2026-04-24 23:14 | 7.26787 | 154.54092 | 37885 ft | 470 kts | 273° |
| 2026-04-24 23:14 | 7.27275 | 154.47484 | 37887 ft | 470 kts | 273° |
| 2026-04-24 23:15 | 7.27762 | 154.40880 | 37884 ft | 470 kts | 274° |
| 2026-04-24 23:15 | 7.28245 | 154.34317 | 37885 ft | 469 kts | 274° |
| 2026-04-24 23:16 | 7.28727 | 154.27750 | 37886 ft | 469 kts | 274° |
| 2026-04-24 23:16 | 7.29207 | 154.21190 | 37887 ft | 469 kts | 274° |
| 2026-04-24 23:17 | 7.29643 | 154.15233 | 37886 ft | 469 kts | 274° |
| 2026-04-24 23:17 | 7.30124 | 154.08640 | 37888 ft | 468 kts | 274° |
| 2026-04-24 23:18 | 7.30600 | 154.02119 | 37887 ft | 467 kts | 274° |
| 2026-04-24 23:18 | 7.31076 | 153.95566 | 37886 ft | 468 kts | 274° |
| 2026-04-24 23:19 | 7.31553 | 153.88997 | 37886 ft | 468 kts | 274° |
| 2026-04-24 23:19 | 7.32028 | 153.82449 | 37885 ft | 469 kts | 274° |
| 2026-04-24 23:20 | 7.32500 | 153.75915 | 37887 ft | 470 kts | 274° |
| 2026-04-24 23:20 | 7.32974 | 153.69327 | 37889 ft | 469 kts | 274° |
| 2026-04-24 23:21 | 7.33449 | 153.62723 | 37895 ft | 469 kts | 274° |
| 2026-04-24 23:21 | 7.33921 | 153.56149 | 37905 ft | 469 kts | 273° |
| 2026-04-24 23:22 | 7.34391 | 153.49606 | 37439 ft | 462 kts | 273° |
| 2026-04-24 23:22 | 7.34621 | 153.46402 | 36878 ft | 455 kts | 274° |
| 2026-04-24 23:22 | 7.34847 | 153.43233 | 36301 ft | 450 kts | 274° |
| 2026-04-24 23:22 | 7.35072 | 153.40093 | 35697 ft | 445 kts | 274° |
| 2026-04-24 23:23 | 7.35291 | 153.37010 | 35092 ft | 440 kts | 274° |
| 2026-04-24 23:23 | 7.35509 | 153.33945 | 34488 ft | 436 kts | 274° |
| 2026-04-24 23:23 | 7.35727 | 153.30885 | 33892 ft | 432 kts | 274° |
| 2026-04-24 23:23 | 7.35940 | 153.27895 | 33334 ft | 428 kts | 274° |
| 2026-04-24 23:24 | 7.36153 | 153.24892 | 32780 ft | 424 kts | 274° |
| 2026-04-24 23:24 | 7.36360 | 153.21970 | 32260 ft | 419 kts | 274° |
| 2026-04-24 23:24 | 7.36571 | 153.19019 | 31733 ft | 416 kts | 275° |
| 2026-04-24 23:24 | 7.36776 | 153.16122 | 31198 ft | 413 kts | 274° |
| 2026-04-24 23:25 | 7.36982 | 153.13220 | 30653 ft | 411 kts | 275° |
| 2026-04-24 23:25 | 7.37184 | 153.10355 | 30105 ft | 409 kts | 275° |
| 2026-04-24 23:25 | 7.37385 | 153.07501 | 29553 ft | 407 kts | 275° |
| 2026-04-24 23:25 | 7.37587 | 153.04639 | 29018 ft | 404 kts | 275° |
| 2026-04-24 23:26 | 7.37784 | 153.01829 | 28489 ft | 401 kts | 275° |
| 2026-04-24 23:26 | 7.37980 | 152.99033 | 27967 ft | 400 kts | 275° |
| 2026-04-24 23:26 | 7.38175 | 152.96272 | 27434 ft | 399 kts | 275° |
| 2026-04-24 23:26 | 7.38372 | 152.93455 | 26902 ft | 398 kts | 275° |
| 2026-04-24 23:27 | 7.38565 | 152.90698 | 26378 ft | 397 kts | 275° |
| 2026-04-24 23:27 | 7.38760 | 152.87912 | 25846 ft | 396 kts | 275° |
| 2026-04-24 23:27 | 7.38954 | 152.85161 | 25326 ft | 394 kts | 275° |
| 2026-04-24 23:27 | 7.39146 | 152.82410 | 24803 ft | 393 kts | 275° |
| 2026-04-24 23:28 | 7.39337 | 152.79680 | 24282 ft | 391 kts | 275° |
| 2026-04-24 23:28 | 7.39530 | 152.76923 | 23758 ft | 390 kts | 275° |
| 2026-04-24 23:28 | 7.39719 | 152.74220 | 23249 ft | 388 kts | 275° |
| 2026-04-24 23:28 | 7.39910 | 152.71492 | 22726 ft | 387 kts | 275° |
| 2026-04-24 23:29 | 7.40097 | 152.68803 | 22216 ft | 385 kts | 275° |
| 2026-04-24 23:29 | 7.40286 | 152.66095 | 21704 ft | 383 kts | 275° |
| 2026-04-24 23:29 | 7.40472 | 152.63420 | 21193 ft | 381 kts | 275° |
| 2026-04-24 23:29 | 7.40656 | 152.60779 | 20689 ft | 379 kts | 275° |
| 2026-04-24 23:30 | 7.40840 | 152.58131 | 20186 ft | 377 kts | 275° |
| 2026-04-24 23:30 | 7.41021 | 152.55531 | 19691 ft | 374 kts | 275° |
| 2026-04-24 23:30 | 7.41204 | 152.52889 | 19190 ft | 372 kts | 275° |
| 2026-04-24 23:30 | 7.41383 | 152.50313 | 18701 ft | 370 kts | 275° |
| 2026-04-24 23:31 | 7.41560 | 152.47751 | 18215 ft | 368 kts | 275° |
| 2026-04-24 23:31 | 7.41739 | 152.45172 | 17692 ft | 364 kts | 274° |
| 2026-04-24 23:31 | 7.41913 | 152.42658 | 17234 ft | 355 kts | 274° |
| 2026-04-24 23:31 | 7.42082 | 152.40208 | 16827 ft | 351 kts | 274° |
| 2026-04-24 23:32 | 7.42253 | 152.37730 | 16303 ft | 353 kts | 274° |
| 2026-04-24 23:32 | 7.42381 | 152.35265 | 15848 ft | 351 kts | 268° |
| 2026-04-24 23:32 | 7.41936 | 152.32852 | 15371 ft | 349 kts | 251° |
| 2026-04-24 23:32 | 7.41150 | 152.30551 | 14901 ft | 348 kts | 249° |
| 2026-04-24 23:33 | 7.40366 | 152.28245 | 14440 ft | 347 kts | 250° |
| 2026-04-24 23:33 | 7.39586 | 152.25951 | 13979 ft | 345 kts | 249° |
| 2026-04-24 23:33 | 7.38805 | 152.23656 | 13522 ft | 344 kts | 250° |
| 2026-04-24 23:33 | 7.38025 | 152.21362 | 13059 ft | 343 kts | 249° |
| 2026-04-24 23:34 | 7.37256 | 152.19101 | 12613 ft | 341 kts | 249° |
| 2026-04-24 23:34 | 7.36480 | 152.16823 | 12152 ft | 340 kts | 249° |
| 2026-04-24 23:34 | 7.35721 | 152.14594 | 11706 ft | 338 kts | 250° |
| 2026-04-24 23:34 | 7.34957 | 152.12352 | 11262 ft | 336 kts | 249° |
| 2026-04-24 23:35 | 7.34194 | 152.10112 | 10812 ft | 334 kts | 249° |
| 2026-04-24 23:35 | 7.33443 | 152.07907 | 10350 ft | 330 kts | 249° |
| 2026-04-24 23:35 | 7.32708 | 152.05749 | 9927 ft | 319 kts | 249° |
| 2026-04-24 23:35 | 7.31999 | 152.03668 | 9524 ft | 310 kts | 249° |
| 2026-04-24 23:36 | 7.31305 | 152.01631 | 9168 ft | 306 kts | 249° |
| 2026-04-24 23:36 | 7.30603 | 151.99577 | 8705 ft | 307 kts | 249° |
| 2026-04-24 23:36 | 7.29913 | 151.97554 | 8291 ft | 303 kts | 249° |
| 2026-04-24 23:36 | 7.29237 | 151.95572 | 7913 ft | 297 kts | 249° |
| 2026-04-24 23:37 | 7.28570 | 151.93619 | 7543 ft | 294 kts | 249° |
| 2026-04-24 23:37 | 7.27904 | 151.91670 | 7132 ft | 293 kts | 249° |
| 2026-04-24 23:37 | 7.26610 | 151.87880 | 6376 ft | 278 kts | 249° |
| 2026-04-24 23:38 | 7.25987 | 151.86055 | 6075 ft | 271 kts | 249° |
| 2026-04-24 23:38 | 7.25350 | 151.84184 | 5821 ft | 293 kts | 251° |
| 2026-04-24 23:38 | 7.25046 | 151.82143 | 5394 ft | 296 kts | 274° |
| 2026-04-24 23:38 | 7.25559 | 151.80151 | 4985 ft | 291 kts | 299° |
| 2026-04-24 23:39 | 7.26777 | 151.78574 | 4535 ft | 285 kts | 322° |
| 2026-04-24 23:39 | 7.28314 | 151.77287 | 4138 ft | 279 kts | 323° |
| 2026-04-24 23:39 | 7.29804 | 151.76050 | 3824 ft | 282 kts | 323° |
| 2026-04-24 23:39 | 7.31311 | 151.74797 | 3445 ft | 278 kts | 323° |
| 2026-04-24 23:40 | 7.32818 | 151.73572 | 3101 ft | 275 kts | 329° |
| 2026-04-24 23:40 | 7.34565 | 151.72899 | 2740 ft | 263 kts | 356° |
| 2026-04-24 23:40 | 7.36383 | 151.72897 | 2386 ft | 253 kts | 12° |
| 2026-04-24 23:40 | 7.38034 | 151.73352 | 2044 ft | 239 kts | 26° |
| 2026-04-24 23:41 | 7.39436 | 151.74185 | 1692 ft | 227 kts | 41° |
| 2026-04-24 23:41 | 7.40499 | 151.75287 | 1350 ft | 205 kts | 55° |
| 2026-04-24 23:41 | 7.41214 | 151.76369 | 1276 ft | 166 kts | 60° |
| 2026-04-24 23:41 | 7.41808 | 151.77316 | 1311 ft | 159 kts | 60° |
| 2026-04-24 23:42 | 7.42398 | 151.78259 | 1279 ft | 154 kts | 59° |
| 2026-04-24 23:42 | 7.42955 | 151.79176 | 1067 ft | 153 kts | 61° |
| 2026-04-24 23:42 | 7.43470 | 151.80060 | 862 ft | 136 kts | 60° |
| 2026-04-24 23:42 | 7.43949 | 151.80850 | 748 ft | 126 kts | 60° |
| 2026-04-24 23:43 | 7.44402 | 151.81607 | 602 ft | 126 kts | 62° |
| 2026-04-24 23:43 | 7.44790 | 151.82390 | 310 ft | 122 kts | 62° |
| 2026-04-24 23:43 | 7.45233 | 151.83118 | 157 ft | 121 kts | 63° |
| 2026-04-24 23:43 | 7.45740 | 151.83806 | 24 ft | 123 kts | 49° |
| 2026-04-24 23:44 | 7.46253 | 151.84364 | 24 ft | 83 kts | 45° |
| 2026-04-24 23:44 | 7.46438 | 151.84555 | 21 ft | 6 kts | 47° |
| 2026-04-24 23:44 | 7.46455 | 151.84561 | 21 ft | 7 kts | 221° |
| 2026-04-24 23:44 | 7.46402 | 151.84512 | 22 ft | 15 kts | 224° |
| 2026-04-24 23:45 | 7.46316 | 151.84428 | 24 ft | 18 kts | 224° |
| 2026-04-24 23:45 | 7.46216 | 151.84325 | 24 ft | 22 kts | 226° |
| 2026-04-24 23:45 | 7.46098 | 151.84207 | 23 ft | 25 kts | 224° |
| 2026-04-24 23:45 | 7.45977 | 151.84074 | 21 ft | 14 kts | 226° |
| 2026-04-24 23:46 | 7.45927 | 151.84032 | 20 ft | 9 kts | 194° |
| 2026-04-24 23:46 | 7.45868 | 151.84059 | 22 ft | 9 kts | 137° |
| 2026-04-24 23:46 | 7.45856 | 151.84120 | 24 ft | 6 kts | 69° |
| 2026-04-24 23:46 | 7.45835 | 151.84154 | 26 ft | 6 kts | 176° |
| 2026-04-24 23:47 | 7.45817 | 151.84142 | 26 ft | 0 kts | 224° |